Time;durP1;ratioP1;P1;durP2;ratioP2;P2;SDS_P1;SDS_P2;PMS_P1;PMS_P2;Temp;Humidity;BMP_temperature;BMP_pressure;BME280_temperature;BME280_humidity;BME280_pressure;Samples;Min_cycle;Max_cycle;Signal;HPM_P1;HPM_P2
2023/12/21 00:01:13;;;;;;;26.98;6.70;;;8.40;99.90;;;;;;5060751;28;20028;-67
2023/12/21 00:03:39;;;;;;;22.90;6.68;;;8.40;99.90;;;;;;5061193;28;20032;-69
2023/12/21 00:06:04;;;;;;;25.92;6.70;;;8.40;99.90;;;;;;5061766;28;20029;-68
2023/12/21 00:08:30;;;;;;;32.30;6.75;;;8.40;99.90;;;;;;5061769;28;20047;-70
2023/12/21 00:10:55;;;;;;;29.95;7.05;;;8.40;99.90;;;;;;5061409;28;20494;-71
2023/12/21 00:13:22;;;;;;;30.42;7.05;;;8.40;99.90;;;;;;5061345;28;20010;-68
2023/12/21 00:15:48;;;;;;;28.83;6.22;;;8.40;99.90;;;;;;5061236;28;20013;-71
2023/12/21 00:18:14;;;;;;;28.83;6.38;;;8.40;99.90;;;;;;5061244;28;20021;-70
2023/12/21 00:20:39;;;;;;;33.00;6.53;;;8.60;99.90;;;;;;5061436;28;20021;-70
2023/12/21 00:23:05;;;;;;;30.90;7.70;;;8.40;99.90;;;;;;5057796;28;20106;-71
2023/12/21 00:25:30;;;;;;;29.92;5.78;;;8.50;99.90;;;;;;5059254;28;20085;-68
2023/12/21 00:27:56;;;;;;;24.05;5.18;;;8.50;99.90;;;;;;5061342;28;20071;-67
2023/12/21 00:30:22;;;;;;;18.33;4.78;;;8.50;99.90;;;;;;5061238;28;20025;-69
2023/12/21 00:32:47;;;;;;;27.50;5.43;;;8.40;99.90;;;;;;5060902;28;20498;-71
2023/12/21 00:35:13;;;;;;;29.33;6.95;;;8.50;99.90;;;;;;5061047;28;20029;-67
2023/12/21 00:37:38;;;;;;;25.92;6.60;;;8.50;99.90;;;;;;5061210;28;20029;-70
2023/12/21 00:40:05;;;;;;;26.55;6.35;;;8.50;99.90;;;;;;5061210;28;20033;-70
2023/12/21 00:42:32;;;;;;;34.20;7.45;;;8.50;99.90;;;;;;5061159;28;20029;-67
2023/12/21 00:44:58;;;;;;;37.90;8.23;;;8.50;99.90;;;;;;5061083;28;20485;-67
2023/12/21 00:47:23;;;;;;;27.98;7.07;;;8.50;99.90;;;;;;5061041;28;20085;-66
2023/12/21 00:49:49;;;;;;;36.20;6.35;;;8.50;99.90;;;;;;5060964;28;20024;-67
2023/12/21 00:52:14;;;;;;;39.20;7.30;;;8.50;99.90;;;;;;5060815;28;20029;-68
2023/12/21 00:54:40;;;;;;;26.85;5.95;;;8.50;99.90;;;;;;5061027;28;20114;-66
2023/12/21 00:57:05;;;;;;;24.88;6.20;;;8.50;99.90;;;;;;5061052;28;20029;-70
2023/12/21 00:59:31;;;;;;;47.45;7.25;;;8.50;99.90;;;;;;5059709;28;20382;-67
2023/12/21 01:01:57;;;;;;;25.42;6.35;;;8.50;99.90;;;;;;5060570;28;20469;-70
2023/12/21 01:04:24;;;;;;;26.77;6.55;;;8.50;99.90;;;;;;5060769;28;20069;-69
2023/12/21 01:06:50;;;;;;;33.13;6.03;;;8.50;99.90;;;;;;5060815;28;20043;-68
2023/12/21 01:09:15;;;;;;;25.17;6.18;;;8.50;99.90;;;;;;5060879;28;20025;-66
2023/12/21 01:11:41;;;;;;;30.38;6.20;;;8.50;99.90;;;;;;5060852;28;20112;-69
2023/12/21 01:14:06;;;;;;;38.60;6.90;;;8.50;99.90;;;;;;5063481;28;20052;-67
2023/12/21 01:16:32;;;;;;;31.20;5.63;;;8.50;99.90;;;;;;5064297;28;20438;-68
2023/12/21 01:18:58;;;;;;;29.98;6.15;;;8.50;99.90;;;;;;5064484;28;20509;-66
2023/12/21 01:21:24;;;;;;;31.95;4.80;;;8.50;99.90;;;;;;5064530;28;20043;-68
2023/12/21 01:23:50;;;;;;;33.70;5.95;;;8.50;99.90;;;;;;5064231;28;20040;-68
2023/12/21 01:26:16;;;;;;;28.92;5.07;;;8.50;99.90;;;;;;5064429;28;20025;-67
2023/12/21 01:28:41;;;;;;;33.97;6.93;;;8.50;99.90;;;;;;5064400;28;20505;-70
2023/12/21 01:31:07;;;;;;;23.00;5.82;;;8.50;99.90;;;;;;5064486;28;20025;-66
2023/12/21 01:33:33;;;;;;;21.92;5.35;;;8.50;99.90;;;;;;5063801;28;20028;-67
2023/12/21 01:35:59;;;;;;;23.98;5.18;;;8.50;99.90;;;;;;5064370;28;20061;-67
2023/12/21 01:38:24;;;;;;;31.30;5.53;;;8.50;99.90;;;;;;5064175;28;20459;-67
2023/12/21 01:40:50;;;;;;;32.45;5.90;;;8.50;99.90;;;;;;5064126;28;20115;-69
2023/12/21 01:43:16;;;;;;;35.80;5.85;;;8.50;99.90;;;;;;5064030;28;20106;-67
2023/12/21 01:45:41;;;;;;;33.90;6.00;;;8.50;99.90;;;;;;5064115;28;20025;-69
2023/12/21 01:48:08;;;;;;;31.40;6.60;;;8.50;99.90;;;;;;5064078;28;20028;-66
2023/12/21 01:50:33;;;;;;;37.80;6.78;;;8.50;99.90;;;;;;5064037;28;20029;-65
2023/12/21 01:53:00;;;;;;;21.83;5.20;;;8.50;99.90;;;;;;5064006;28;20503;-68
2023/12/21 01:55:27;;;;;;;32.38;5.68;;;8.50;99.90;;;;;;5063403;28;20036;-68
2023/12/21 01:57:53;;;;;;;36.72;6.35;;;8.50;99.90;;;;;;5063447;28;20556;-67
2023/12/21 02:00:19;;;;;;;37.10;6.40;;;8.50;99.90;;;;;;5063410;28;20025;-67
2023/12/21 02:02:45;;;;;;;40.08;6.05;;;8.50;99.90;;;;;;5063677;28;20052;-66
2023/12/21 02:05:10;;;;;;;36.65;6.28;;;8.50;99.90;;;;;;5063554;28;20033;-69
2023/12/21 02:07:36;;;;;;;37.65;6.90;;;8.50;99.90;;;;;;5062582;28;20489;-70
2023/12/21 02:10:02;;;;;;;28.52;6.45;;;8.50;99.90;;;;;;5063704;28;20025;-69
2023/12/21 02:12:28;;;;;;;42.72;7.28;;;8.50;99.90;;;;;;5062226;28;20513;-67
2023/12/21 02:14:53;;;;;;;37.53;7.07;;;8.50;99.90;;;;;;5063549;28;20059;-67
2023/12/21 02:17:21;;;;;;;48.05;7.22;;;8.50;99.90;;;;;;5063455;28;20020;-68
2023/12/21 02:19:48;;;;;;;48.33;7.25;;;8.50;99.90;;;;;;5062224;28;20132;-68
2023/12/21 02:22:16;;;;;;;31.83;7.05;;;8.50;99.90;;;;;;5063169;28;20028;-69
2023/12/21 02:24:42;;;;;;;33.20;6.00;;;8.50;99.90;;;;;;5062309;28;20063;-68
2023/12/21 02:27:07;;;;;;;35.75;6.93;;;8.60;99.90;;;;;;5059972;28;20029;-68
2023/12/21 02:29:33;;;;;;;34.08;6.45;;;8.50;99.90;;;;;;5061810;28;20029;-70
2023/12/21 02:31:59;;;;;;;31.40;6.40;;;8.60;99.90;;;;;;5061644;28;20069;-68
2023/12/21 02:34:24;;;;;;;28.52;6.50;;;8.50;99.90;;;;;;5061907;28;20096;-70
2023/12/21 02:36:50;;;;;;;23.85;6.40;;;8.60;99.90;;;;;;5063258;28;20119;-71
2023/12/21 02:39:15;;;;;;;24.02;7.43;;;8.50;99.90;;;;;;5063037;28;20090;-68
2023/12/21 02:41:41;;;;;;;21.98;5.93;;;8.50;99.90;;;;;;5063194;28;20187;-68
2023/12/21 02:44:07;;;;;;;25.48;5.97;;;8.50;99.90;;;;;;5062870;28;20040;-69
2023/12/21 02:46:32;;;;;;;28.30;5.68;;;8.60;99.90;;;;;;5063187;28;20037;-70
2023/12/21 02:48:58;;;;;;;18.15;6.07;;;8.60;99.90;;;;;;5062843;28;20029;-69
2023/12/21 02:51:23;;;;;;;23.25;6.53;;;8.60;99.90;;;;;;5062892;28;20040;-67
2023/12/21 02:53:49;;;;;;;28.10;6.97;;;8.60;99.90;;;;;;5063017;28;20029;-68
2023/12/21 02:56:15;;;;;;;30.02;6.60;;;8.60;99.90;;;;;;5062757;28;20020;-68
2023/12/21 02:58:41;;;;;;;29.63;5.72;;;8.60;99.90;;;;;;5062474;28;20028;-69
2023/12/21 03:01:07;;;;;;;17.00;5.05;;;8.60;99.90;;;;;;5062533;28;20036;-68
2023/12/21 03:03:32;;;;;;;25.55;6.50;;;8.60;99.90;;;;;;5062856;28;20068;-70
2023/12/21 03:05:58;;;;;;;26.25;6.57;;;8.50;99.90;;;;;;5062554;28;20017;-69
2023/12/21 03:08:23;;;;;;;21.23;5.82;;;8.60;99.90;;;;;;5062505;28;20029;-69
2023/12/21 03:10:49;;;;;;;27.33;6.72;;;8.60;99.90;;;;;;5061800;28;20025;-69
2023/12/21 03:13:15;;;;;;;21.95;5.93;;;8.60;99.90;;;;;;5062301;28;20035;-69
2023/12/21 03:15:41;;;;;;;28.08;7.45;;;8.50;99.90;;;;;;5062507;28;20059;-68
2023/12/21 03:18:06;;;;;;;16.95;5.55;;;8.50;99.90;;;;;;5062241;28;20028;-67
2023/12/21 03:20:32;;;;;;;21.73;7.10;;;8.50;99.90;;;;;;5062754;28;20024;-69
2023/12/21 03:22:57;;;;;;;21.13;5.97;;;8.60;99.90;;;;;;5062177;28;20033;-69
2023/12/21 03:25:23;;;;;;;21.73;5.53;;;8.50;99.90;;;;;;5062101;28;20573;-68
2023/12/21 03:27:49;;;;;;;26.73;6.82;;;8.60;99.90;;;;;;5062150;28;20032;-70
2023/12/21 03:30:14;;;;;;;25.27;6.40;;;8.60;99.90;;;;;;5061995;28;20033;-69
2023/12/21 03:32:40;;;;;;;24.13;7.07;;;8.60;99.90;;;;;;5060642;28;20033;-68
2023/12/21 03:35:07;;;;;;;24.25;6.75;;;8.50;99.90;;;;;;5060719;28;20051;-69
2023/12/21 03:37:33;;;;;;;16.48;4.93;;;8.60;99.90;;;;;;5061774;28;20103;-69
2023/12/21 03:39:59;;;;;;;20.38;5.95;;;8.60;99.90;;;;;;5060154;28;20041;-69
2023/12/21 03:42:24;;;;;;;26.02;7.15;;;8.60;99.90;;;;;;5061734;28;20029;-72
2023/12/21 03:44:50;;;;;;;21.80;6.90;;;8.60;99.90;;;;;;5061877;28;20028;-68
2023/12/21 03:47:15;;;;;;;23.67;6.32;;;8.60;99.90;;;;;;5061713;28;20048;-70
2023/12/21 03:49:41;;;;;;;17.55;5.90;;;8.60;99.90;;;;;;5061745;28;20021;-70
2023/12/21 03:52:08;;;;;;;17.38;5.70;;;8.60;99.90;;;;;;5061640;28;20021;-70
2023/12/21 03:54:33;;;;;;;22.05;6.20;;;8.70;99.90;;;;;;5062112;28;20029;-69
2023/12/21 03:56:59;;;;;;;22.10;6.95;;;8.60;99.90;;;;;;5061167;28;20032;-71
2023/12/21 03:59:24;;;;;;;20.45;6.45;;;8.60;99.90;;;;;;5061288;28;20031;-70
2023/12/21 04:01:51;;;;;;;24.08;7.20;;;8.60;99.90;;;;;;5061344;28;20520;-68
2023/12/21 04:04:17;;;;;;;30.67;7.40;;;8.60;99.90;;;;;;5061231;28;20037;-70
2023/12/21 04:06:43;;;;;;;27.17;6.63;;;8.60;99.90;;;;;;5061465;28;20067;-71
2023/12/21 04:09:09;;;;;;;18.58;5.80;;;8.60;99.90;;;;;;5060233;28;20021;-74
2023/12/21 04:11:35;;;;;;;23.25;7.13;;;8.60;99.90;;;;;;5061441;28;20021;-70
2023/12/21 04:14:00;;;;;;;26.50;6.72;;;8.60;99.90;;;;;;5061745;28;20036;-68
2023/12/21 04:16:26;;;;;;;24.40;7.22;;;8.60;99.90;;;;;;5061446;28;20408;-70
2023/12/21 04:18:52;;;;;;;27.65;6.93;;;8.60;99.90;;;;;;5061211;28;20029;-68
2023/12/21 04:21:17;;;;;;;32.78;7.95;;;8.60;99.90;;;;;;5059387;28;20025;-69
2023/12/21 04:23:44;;;;;;;30.98;6.68;;;8.60;99.90;;;;;;5061210;28;20044;-68
2023/12/21 04:26:18;;;;;;;19.00;6.47;;;8.60;99.90;;;;;;5060934;28;20028;-70
2023/12/21 04:28:43;;;;;;;27.05;7.38;;;8.60;99.90;;;;;;5061302;28;20013;-69
2023/12/21 04:31:09;;;;;;;21.20;7.10;;;8.60;99.90;;;;;;5061233;28;20486;-69
2023/12/21 04:33:39;;;;;;;28.98;6.78;;;8.60;99.90;;;;;;5061328;28;20032;-69
2023/12/21 04:36:05;;;;;;;25.75;6.40;;;8.60;99.90;;;;;;5059988;28;20029;-70
2023/12/21 04:38:30;;;;;;;24.73;5.93;;;8.60;99.90;;;;;;5060303;28;20096;-71
2023/12/21 04:40:56;;;;;;;25.58;8.07;;;8.60;99.90;;;;;;5059696;28;20033;-68
2023/12/21 04:43:21;;;;;;;24.65;6.75;;;8.60;99.90;;;;;;5060969;28;20026;-68
2023/12/21 04:45:47;;;;;;;17.42;5.85;;;8.60;99.90;;;;;;5059778;28;20033;-70
2023/12/21 04:48:12;;;;;;;26.17;6.63;;;8.60;99.90;;;;;;5062137;28;20029;-71
2023/12/21 04:50:38;;;;;;;19.45;6.53;;;8.70;99.90;;;;;;5065246;28;20029;-70
2023/12/21 04:53:04;;;;;;;23.30;5.82;;;8.60;99.90;;;;;;5063768;28;20025;-69
2023/12/21 04:55:29;;;;;;;28.30;6.75;;;8.60;99.90;;;;;;5065189;28;20036;-67
2023/12/21 04:57:55;;;;;;;22.98;7.28;;;8.60;99.90;;;;;;5065027;28;20143;-68
2023/12/21 05:00:20;;;;;;;18.95;5.53;;;8.60;99.90;;;;;;5064731;28;20061;-71
2023/12/21 05:02:46;;;;;;;24.38;6.15;;;8.60;99.90;;;;;;5064771;28;20075;-71
2023/12/21 05:05:11;;;;;;;21.10;6.72;;;8.70;99.90;;;;;;5063494;28;20029;-69
2023/12/21 05:07:37;;;;;;;23.13;6.60;;;8.60;99.90;;;;;;5065133;28;20037;-69
2023/12/21 05:10:03;;;;;;;27.10;6.13;;;8.70;99.90;;;;;;5064309;28;20374;-72
2023/12/21 05:12:28;;;;;;;17.88;5.32;;;8.60;99.90;;;;;;5064839;28;20025;-69
2023/12/21 05:14:54;;;;;;;13.73;4.25;;;8.60;99.90;;;;;;5064836;28;20990;-71
2023/12/21 05:17:20;;;;;;;12.23;3.63;;;8.60;99.90;;;;;;5063249;28;20053;-69
2023/12/21 05:19:46;;;;;;;15.07;3.38;;;8.60;99.90;;;;;;5063126;28;20033;-68
2023/12/21 05:22:11;;;;;;;15.32;3.75;;;8.70;99.90;;;;;;5064110;28;20029;-70
2023/12/21 05:24:38;;;;;;;11.40;3.65;;;8.60;99.90;;;;;;5064531;28;20033;-67
2023/12/21 05:27:05;;;;;;;11.48;3.00;;;8.60;99.90;;;;;;5064227;28;20025;-69
2023/12/21 05:29:30;;;;;;;6.25;2.90;;;8.60;99.90;;;;;;5064097;28;20028;-69
2023/12/21 05:31:56;;;;;;;9.68;2.80;;;8.60;99.90;;;;;;5064384;28;20029;-70
2023/12/21 05:34:21;;;;;;;9.40;3.50;;;8.60;99.90;;;;;;5062109;28;20009;-70
2023/12/21 05:36:47;;;;;;;7.43;3.00;;;8.60;99.90;;;;;;5064195;28;20462;-69
2023/12/21 05:39:13;;;;;;;9.65;2.95;;;8.70;99.90;;;;;;5064075;28;20032;-69
2023/12/21 05:41:40;;;;;;;8.52;3.20;;;8.60;99.90;;;;;;5064483;28;20515;-69
2023/12/21 05:44:05;;;;;;;8.15;2.50;;;8.60;99.90;;;;;;5064015;28;20029;-71
2023/12/21 05:46:31;;;;;;;6.57;2.90;;;8.60;99.90;;;;;;5064376;28;20434;-69
2023/12/21 05:48:56;;;;;;;5.85;2.38;;;8.60;99.90;;;;;;5060793;28;20033;-72
2023/12/21 05:51:22;;;;;;;6.65;2.63;;;8.60;99.90;;;;;;5062616;28;20036;-71
2023/12/21 05:53:48;;;;;;;10.25;2.72;;;8.70;99.90;;;;;;5063486;28;20025;-68
2023/12/21 05:56:13;;;;;;;9.15;3.20;;;8.60;99.90;;;;;;5061885;28;20033;-69
2023/12/21 05:58:39;;;;;;;8.50;2.78;;;8.60;99.90;;;;;;5062782;28;20035;-68
2023/12/21 06:01:04;;;;;;;7.85;2.92;;;8.60;99.90;;;;;;5059422;28;20163;-70
2023/12/21 06:03:30;;;;;;;7.20;3.17;;;8.60;99.90;;;;;;5060920;28;20039;-69
2023/12/21 06:05:55;;;;;;;5.90;2.58;;;8.60;99.90;;;;;;5061501;28;20040;-70
2023/12/21 06:08:21;;;;;;;6.70;2.85;;;8.60;99.90;;;;;;5062279;28;20052;-68
2023/12/21 06:10:47;;;;;;;4.90;2.40;;;8.60;99.90;;;;;;5062767;28;20044;-69
2023/12/21 06:13:13;;;;;;;5.43;2.50;;;8.60;99.90;;;;;;5061182;28;20027;-68
2023/12/21 06:15:38;;;;;;;10.10;2.85;;;8.60;99.90;;;;;;5061616;28;20052;-69
2023/12/21 06:18:04;;;;;;;5.82;2.83;;;8.60;99.90;;;;;;5063827;28;20021;-70
2023/12/21 06:20:30;;;;;;;8.00;3.03;;;8.60;99.90;;;;;;5061881;28;20033;-70
2023/12/21 06:22:56;;;;;;;8.00;2.50;;;8.60;99.90;;;;;;5061451;28;20036;-68
2023/12/21 06:25:22;;;;;;;5.47;2.20;;;8.60;99.90;;;;;;5062777;28;20037;-69
2023/12/21 06:27:47;;;;;;;5.30;2.50;;;8.60;99.90;;;;;;5060551;28;20027;-69
2023/12/21 06:30:13;;;;;;;10.68;2.90;;;8.60;99.90;;;;;;5062220;28;20080;-69
2023/12/21 06:32:39;;;;;;;5.50;2.80;;;8.60;99.90;;;;;;5058920;28;20025;-70
2023/12/21 06:35:05;;;;;;;6.43;2.60;;;8.60;99.90;;;;;;5062428;28;20048;-71
2023/12/21 06:37:31;;;;;;;5.38;2.42;;;8.60;99.90;;;;;;5061543;28;20025;-70
2023/12/21 06:39:57;;;;;;;4.95;2.15;;;8.70;99.90;;;;;;5060523;28;20676;-67
2023/12/21 06:42:23;;;;;;;9.43;2.70;;;8.70;99.90;;;;;;5061933;28;20040;-69
2023/12/21 06:44:49;;;;;;;4.88;2.30;;;8.70;99.90;;;;;;5059501;28;20044;-70
2023/12/21 06:47:15;;;;;;;7.32;3.00;;;8.70;99.90;;;;;;5059407;28;20047;-70
2023/12/21 06:49:40;;;;;;;10.10;3.55;;;8.70;99.90;;;;;;5056226;28;20029;-69
2023/12/21 06:52:06;;;;;;;11.75;3.38;;;8.70;99.90;;;;;;5055322;28;20025;-68
2023/12/21 06:54:32;;;;;;;6.15;2.90;;;8.70;99.90;;;;;;5059003;28;20025;-70
2023/12/21 06:56:58;;;;;;;6.65;3.17;;;8.70;99.90;;;;;;5056885;28;20817;-69
2023/12/21 06:59:24;;;;;;;6.63;3.33;;;8.70;99.90;;;;;;5060594;28;20029;-69
2023/12/21 07:01:49;;;;;;;9.45;3.55;;;8.70;99.90;;;;;;5059455;28;20060;-71
2023/12/21 07:04:16;;;;;;;10.25;3.40;;;8.70;99.90;;;;;;5053812;28;20047;-68
2023/12/21 07:06:42;;;;;;;11.35;3.65;;;8.70;99.90;;;;;;5052335;28;20052;-68
2023/12/21 07:09:09;;;;;;;7.70;3.03;;;8.70;99.90;;;;;;5057892;28;20029;-69
2023/12/21 07:11:34;;;;;;;7.20;2.47;;;8.70;99.90;;;;;;5060406;28;20059;-72
2023/12/21 07:14:00;;;;;;;7.28;2.55;;;8.70;99.90;;;;;;5061231;28;20025;-68
2023/12/21 07:16:25;;;;;;;6.18;2.80;;;8.70;99.90;;;;;;5062067;28;20021;-68
2023/12/21 07:18:51;;;;;;;7.90;2.70;;;8.70;99.90;;;;;;5060507;28;20478;-68
2023/12/21 07:21:16;;;;;;;6.75;2.70;;;8.70;99.90;;;;;;5062012;28;20036;-68
2023/12/21 07:23:42;;;;;;;4.07;2.05;;;8.70;99.90;;;;;;5060294;28;20042;-67
2023/12/21 07:26:10;;;;;;;6.03;2.22;;;8.70;99.90;;;;;;5061642;28;20020;-70
2023/12/21 07:28:36;;;;;;;8.90;2.28;;;8.70;99.90;;;;;;5057975;28;20024;-69
2023/12/21 07:31:02;;;;;;;6.65;2.30;;;8.70;99.90;;;;;;5061050;28;20142;-69
2023/12/21 07:33:27;;;;;;;5.22;2.40;;;8.70;99.90;;;;;;5059895;28;20044;-67
2023/12/21 07:35:53;;;;;;;4.20;2.30;;;8.70;99.90;;;;;;5060650;28;20021;-68
2023/12/21 07:38:18;;;;;;;3.92;1.65;;;8.70;99.90;;;;;;5061111;28;20056;-68
2023/12/21 07:40:45;;;;;;;8.80;2.40;;;8.70;99.90;;;;;;5057064;28;20024;-69
2023/12/21 07:43:10;;;;;;;6.25;2.17;;;8.70;99.90;;;;;;5059799;28;20025;-70
2023/12/21 07:45:36;;;;;;;12.40;2.10;;;8.70;99.90;;;;;;5060801;28;20075;-68
2023/12/21 07:48:02;;;;;;;5.57;1.80;;;8.70;99.90;;;;;;5060086;28;20033;-68
2023/12/21 07:50:29;;;;;;;4.20;2.03;;;8.70;99.90;;;;;;5059824;28;20028;-68
2023/12/21 07:52:56;;;;;;;7.45;2.08;;;8.70;99.90;;;;;;5060873;28;20036;-70
2023/12/21 07:55:24;;;;;;;9.45;2.00;;;8.80;99.90;;;;;;5060961;28;20021;-68
2023/12/21 07:57:50;;;;;;;5.75;2.00;;;8.70;99.90;;;;;;5060501;28;20040;-68
2023/12/21 08:00:16;;;;;;;4.35;1.90;;;8.70;99.90;;;;;;5057411;28;20025;-71
2023/12/21 08:02:44;;;;;;;3.95;2.10;;;8.80;99.90;;;;;;5059067;28;20045;-69
2023/12/21 08:05:11;;;;;;;8.10;2.33;;;8.70;99.90;;;;;;5060713;28;20044;-69
2023/12/21 08:07:38;;;;;;;3.20;1.38;;;8.70;99.90;;;;;;5059491;28;20025;-69
2023/12/21 08:10:04;;;;;;;5.95;2.30;;;8.70;99.90;;;;;;5061460;28;20021;-69
2023/12/21 08:12:29;;;;;;;9.10;3.42;;;8.70;99.90;;;;;;5061586;28;20028;-72
2023/12/21 08:14:55;;;;;;;6.32;2.42;;;8.70;99.90;;;;;;5050671;28;20024;-68
2023/12/21 08:17:20;;;;;;;7.32;3.25;;;8.80;99.90;;;;;;5056322;28;21488;-69
2023/12/21 08:19:46;;;;;;;4.88;2.60;;;8.80;99.90;;;;;;5053988;28;20108;-70
2023/12/21 08:22:12;;;;;;;11.70;2.42;;;8.80;99.90;;;;;;5058656;28;20540;-69
2023/12/21 08:24:37;;;;;;;8.05;2.75;;;8.80;99.90;;;;;;5060155;28;20037;-70
2023/12/21 08:27:05;;;;;;;8.70;2.70;;;8.70;99.90;;;;;;5058750;28;20025;-71
2023/12/21 08:29:31;;;;;;;10.05;2.92;;;8.80;99.90;;;;;;5059636;28;20029;-68
2023/12/21 08:31:56;;;;;;;6.75;3.00;;;8.80;99.90;;;;;;5060890;28;20109;-70
2023/12/21 08:34:22;;;;;;;9.50;2.72;;;8.80;99.90;;;;;;5059900;28;20017;-69
2023/12/21 08:36:48;;;;;;;6.90;2.35;;;8.80;99.90;;;;;;5060817;28;20067;-69
2023/12/21 08:39:14;;;;;;;9.95;2.85;;;8.80;99.90;;;;;;5059412;28;20021;-67
2023/12/21 08:41:39;;;;;;;6.75;2.75;;;8.80;99.90;;;;;;5061430;28;20060;-69
2023/12/21 08:44:06;;;;;;;10.65;2.75;;;8.80;99.90;;;;;;5061095;28;20033;-68
2023/12/21 08:46:31;;;;;;;12.88;4.30;;;8.80;99.90;;;;;;5060522;28;20112;-71
2023/12/21 08:48:57;;;;;;;11.50;2.85;;;8.80;99.90;;;;;;5060366;28;20029;-68
2023/12/21 08:51:22;;;;;;;7.82;2.42;;;8.80;99.90;;;;;;5058062;28;20061;-70
2023/12/21 08:53:48;;;;;;;11.52;3.30;;;8.80;99.90;;;;;;5060905;28;20029;-67
2023/12/21 08:56:15;;;;;;;5.97;2.67;;;8.80;99.90;;;;;;5059771;28;20025;-72
2023/12/21 08:58:41;;;;;;;7.22;3.08;;;8.80;99.90;;;;;;5060693;28;20021;-69
2023/12/21 09:01:06;;;;;;;7.88;2.40;;;8.80;99.90;;;;;;5059310;28;20025;-70
2023/12/21 09:03:32;;;;;;;8.40;2.22;;;8.90;99.90;;;;;;5058354;28;20025;-70
2023/12/21 09:05:57;;;;;;;9.98;2.30;;;8.90;99.90;;;;;;5059295;28;20021;-70
2023/12/21 09:08:23;;;;;;;9.27;3.03;;;8.80;99.90;;;;;;5056275;28;20028;-70
2023/12/21 09:10:49;;;;;;;13.27;2.75;;;8.90;99.90;;;;;;5059878;28;20025;-68
2023/12/21 09:13:14;;;;;;;8.02;3.03;;;8.90;99.90;;;;;;5060141;28;20108;-69
2023/12/21 09:15:40;;;;;;;9.48;3.05;;;8.90;99.90;;;;;;5060638;28;20025;-70
2023/12/21 09:18:06;;;;;;;6.28;1.67;;;8.90;99.90;;;;;;5060945;28;20025;-69
2023/12/21 09:20:32;;;;;;;3.38;1.80;;;8.90;99.90;;;;;;5059605;28;20032;-69
2023/12/21 09:22:57;;;;;;;3.78;1.80;;;8.90;99.90;;;;;;5060680;28;20025;-68
2023/12/21 09:25:23;;;;;;;2.88;1.42;;;9.00;99.90;;;;;;5060307;28;20045;-67
2023/12/21 09:27:48;;;;;;;3.38;1.35;;;8.90;99.90;;;;;;5059813;28;20029;-70
2023/12/21 09:30:16;;;;;;;3.60;1.70;;;8.90;99.90;;;;;;5058316;28;20025;-71
2023/12/21 09:32:42;;;;;;;5.93;1.83;;;9.00;99.90;;;;;;5053022;28;20036;-70
2023/12/21 09:35:08;;;;;;;4.30;1.85;;;9.00;99.90;;;;;;5055932;28;20029;-67
2023/12/21 09:37:35;;;;;;;5.57;1.80;;;9.00;99.90;;;;;;5062759;28;20465;-70
2023/12/21 09:40:02;;;;;;;2.67;1.48;;;9.00;99.90;;;;;;5063401;28;20052;-71
2023/12/21 09:42:29;;;;;;;4.22;0.90;;;9.00;99.90;;;;;;5064214;28;20013;-69
2023/12/21 09:44:55;;;;;;;1.90;1.00;;;9.00;99.90;;;;;;5063172;28;20881;-70
2023/12/21 09:47:23;;;;;;;1.63;1.02;;;9.00;99.90;;;;;;5062935;28;20139;-68
2023/12/21 09:49:50;;;;;;;1.75;1.00;;;9.10;99.90;;;;;;5062414;28;20028;-71
2023/12/21 09:52:18;;;;;;;2.03;1.10;;;9.10;99.90;;;;;;5063443;28;20021;-69
2023/12/21 09:54:46;;;;;;;3.05;1.10;;;9.10;99.90;;;;;;5063434;28;20019;-69
2023/12/21 09:57:14;;;;;;;4.65;1.38;;;9.10;99.90;;;;;;5062305;28;20028;-68
2023/12/21 09:59:41;;;;;;;2.78;1.50;;;9.10;99.90;;;;;;5063787;28;20032;-66
2023/12/21 10:02:12;;;;;;;3.13;1.20;;;9.10;99.90;;;;;;5058656;28;20044;-69
2023/12/21 10:04:44;;;;;;;2.30;1.33;;;9.10;99.90;;;;;;5063878;28;20029;-69
2023/12/21 10:07:10;;;;;;;4.97;1.70;;;9.10;99.90;;;;;;5063739;28;20104;-69
2023/12/21 10:09:37;;;;;;;1.60;1.00;;;9.10;99.90;;;;;;5063974;28;20040;-70
2023/12/21 10:12:03;;;;;;;3.35;1.45;;;9.10;99.90;;;;;;5061844;28;20079;-71
2023/12/21 10:14:31;;;;;;;2.75;1.45;;;9.10;99.90;;;;;;5060640;28;20032;-70
2023/12/21 10:16:58;;;;;;;2.05;1.10;;;9.10;99.90;;;;;;5059602;28;20033;-70
2023/12/21 10:19:24;;;;;;;6.30;1.10;;;9.10;99.90;;;;;;5060782;28;20029;-68
2023/12/21 10:21:50;;;;;;;3.83;1.10;;;9.10;99.90;;;;;;5062385;28;20025;-68
2023/12/21 10:24:19;;;;;;;3.33;1.00;;;9.10;99.90;;;;;;5062543;28;20041;-68
2023/12/21 10:26:45;;;;;;;3.38;0.90;;;9.10;99.90;;;;;;5061623;28;20035;-71
2023/12/21 10:29:15;;;;;;;2.00;0.90;;;9.10;99.90;;;;;;5062770;28;20024;-69
2023/12/21 10:31:45;;;;;;;1.75;0.73;;;9.20;99.90;;;;;;5061213;28;20114;-68
2023/12/21 10:34:12;;;;;;;2.13;1.17;;;9.20;99.90;;;;;;5056666;28;20060;-68
2023/12/21 10:36:44;;;;;;;2.20;1.00;;;9.20;99.90;;;;;;5061926;28;20021;-68
2023/12/21 10:39:14;;;;;;;2.00;0.70;;;9.20;99.90;;;;;;5059857;28;20067;-69
2023/12/21 10:41:42;;;;;;;4.75;1.00;;;9.20;99.90;;;;;;5060208;28;20403;-68
2023/12/21 10:44:07;;;;;;;4.03;1.90;;;9.20;99.90;;;;;;5061391;28;20047;-70
2023/12/21 10:46:34;;;;;;;11.35;1.80;;;9.30;99.90;;;;;;5062557;28;20095;-67
2023/12/21 10:49:01;;;;;;;9.32;1.23;;;9.20;99.90;;;;;;5062536;28;20050;-71
2023/12/21 10:51:35;;;;;;;6.90;1.50;;;9.20;99.90;;;;;;5062742;28;20106;-68
2023/12/21 10:54:02;;;;;;;1.90;0.77;;;9.20;99.90;;;;;;5060796;28;20021;-71
2023/12/21 10:56:28;;;;;;;4.22;1.10;;;9.30;99.90;;;;;;5060752;28;20111;-70
2023/12/21 10:58:55;;;;;;;3.88;1.00;;;9.30;99.90;;;;;;5061981;28;20036;-69
2023/12/21 11:01:22;;;;;;;4.65;1.20;;;9.30;99.90;;;;;;5062091;28;20049;-71
2023/12/21 11:03:49;;;;;;;3.95;1.00;;;9.30;99.90;;;;;;5061953;28;20139;-67
2023/12/21 11:06:16;;;;;;;4.60;1.33;;;9.30;99.90;;;;;;5061433;28;20178;-69
2023/12/21 11:08:46;;;;;;;5.97;1.00;;;9.30;99.90;;;;;;5060902;28;20032;-68
2023/12/21 11:11:22;;;;;;;5.35;1.48;;;9.30;99.90;;;;;;5060848;28;20027;-68
2023/12/21 11:13:52;;;;;;;3.78;1.33;;;9.30;99.90;;;;;;5061089;28;20035;-71
2023/12/21 11:16:23;;;;;;;3.60;1.05;;;9.40;99.90;;;;;;5061268;28;20076;-68
2023/12/21 11:18:50;;;;;;;3.38;1.13;;;9.40;99.90;;;;;;5061540;28;20025;-68
2023/12/21 11:21:18;;;;;;;15.50;2.40;;;9.40;99.90;;;;;;5060014;28;20025;-68
2023/12/21 11:23:44;;;;;;;9.77;2.03;;;9.40;99.90;;;;;;5060482;28;20175;-71
2023/12/21 11:26:11;;;;;;;10.07;1.83;;;9.40;99.90;;;;;;5059462;28;20151;-71
2023/12/21 11:28:37;;;;;;;17.50;2.47;;;9.40;99.90;;;;;;5062016;28;20044;-68
2023/12/21 11:31:15;;;;;;;12.13;2.15;;;9.50;99.90;;;;;;5062195;28;20035;-70
2023/12/21 11:33:42;;;;;;;12.20;2.17;;;9.50;99.90;;;;;;5051392;28;20071;-71
2023/12/21 11:36:20;;;;;;;17.85;2.30;;;9.50;99.90;;;;;;5048027;28;20036;-69
2023/12/21 11:38:52;;;;;;;18.38;2.47;;;9.60;99.90;;;;;;5061086;28;20032;-70
2023/12/21 11:41:20;;;;;;;16.30;3.40;;;9.50;99.90;;;;;;5060923;28;20096;-69
2023/12/21 11:44:03;;;;;;;29.13;3.70;;;9.60;99.90;;;;;;5055082;28;20108;-70
2023/12/21 11:46:32;;;;;;;23.35;3.25;;;9.60;99.90;;;;;;5059603;28;20059;-71
2023/12/21 11:48:58;;;;;;;27.60;4.20;;;9.60;99.90;;;;;;5058039;28;20390;-70
2023/12/21 11:51:23;;;;;;;28.55;3.50;;;9.60;99.90;;;;;;5056026;28;20028;-67
2023/12/21 11:53:49;;;;;;;20.88;3.65;;;9.70;99.90;;;;;;5060026;28;20017;-70
2023/12/21 11:56:14;;;;;;;30.23;4.25;;;9.70;99.90;;;;;;5060409;28;20032;-69
2023/12/21 11:58:41;;;;;;;40.05;4.57;;;9.70;99.90;;;;;;5060279;28;20029;-69
2023/12/21 12:01:07;;;;;;;35.20;4.68;;;9.70;99.90;;;;;;5059594;28;20058;-69
2023/12/21 12:03:33;;;;;;;27.40;3.70;;;9.70;99.90;;;;;;5060787;28;20377;-68
2023/12/21 12:06:00;;;;;;;36.50;4.07;;;9.70;99.90;;;;;;5060679;28;20410;-69
2023/12/21 12:08:26;;;;;;;36.25;4.35;;;9.70;99.90;;;;;;5061132;28;20059;-72
2023/12/21 12:10:59;;;;;;;32.50;4.50;;;9.70;99.90;;;;;;5061262;28;20021;-71
2023/12/21 12:13:24;;;;;;;42.00;5.57;;;9.70;99.90;;;;;;5061244;28;20044;-69
2023/12/21 12:15:52;;;;;;;34.35;4.38;;;9.70;99.90;;;;;;5061514;28;20025;-69
2023/12/21 12:18:22;;;;;;;36.60;4.47;;;9.70;99.90;;;;;;5061111;28;20024;-70
2023/12/21 12:20:49;;;;;;;13.52;2.20;;;9.70;99.90;;;;;;5061057;28;20036;-72
2023/12/21 12:23:15;;;;;;;12.32;1.70;;;9.40;99.90;;;;;;5060980;28;20397;-68
2023/12/21 12:25:42;;;;;;;10.60;1.65;;;8.90;99.90;;;;;;5061301;28;20033;-69
2023/12/21 12:28:08;;;;;;;7.80;1.50;;;8.40;99.90;;;;;;5060528;28;20085;-69
2023/12/21 12:30:38;;;;;;;19.83;2.25;;;8.30;99.90;;;;;;5061645;28;20032;-70
2023/12/21 12:33:04;;;;;;;10.30;1.70;;;8.10;99.90;;;;;;5060728;28;20021;-69
2023/12/21 12:35:37;;;;;;;9.07;1.60;;;7.90;99.90;;;;;;5060776;28;20565;-67
2023/12/21 12:38:09;;;;;;;15.02;1.48;;;7.70;99.90;;;;;;5061221;28;20034;-66
2023/12/21 12:40:35;;;;;;;8.20;1.20;;;7.60;99.90;;;;;;5060849;28;20052;-69
2023/12/21 12:43:01;;;;;;;16.58;1.95;;;7.40;99.90;;;;;;5061050;28;20017;-68
2023/12/21 12:45:26;;;;;;;21.15;2.25;;;7.30;99.90;;;;;;5061050;28;20056;-73